Time;durP1;ratioP1;P1;durP2;ratioP2;P2;SDS_P1;SDS_P2;PMS_P1;PMS_P2;Temp;Humidity;BMP_temperature;BMP_pressure;BME280_temperature;BME280_humidity;BME280_pressure;Samples;Min_cycle;Max_cycle;Signal;HPM_P1;HPM_P2
2021/12/21 00:01:07;;;;;;;19.88;7.03;;;25.20;63.60;;;;;;6304806;22;20002;-76
2021/12/21 00:03:33;;;;;;;14.27;5.55;;;25.20;64.00;;;;;;6303327;22;20439;-78
2021/12/21 00:06:00;;;;;;;16.33;5.38;;;25.10;64.10;;;;;;6304318;22;20047;-85
2021/12/21 00:08:26;;;;;;;15.93;5.35;;;25.00;64.30;;;;;;6303645;22;19999;-76
2021/12/21 00:10:54;;;;;;;15.85;6.55;;;25.00;64.60;;;;;;6303365;22;20003;-78
2021/12/21 00:16:15;;;;;;;12.90;5.03;;;24.90;65.00;;;;;;6303081;22;20325;-82
2021/12/21 00:23:48;;;;;;;16.73;4.70;;;24.70;65.80;;;;;;6303860;22;20003;-79
2021/12/21 00:26:17;;;;;;;16.20;5.60;;;24.70;66.00;;;;;;6305114;22;20019;-78
2021/12/21 00:29:00;;;;;;;15.75;4.80;;;24.60;66.20;;;;;;6302674;22;20008;-78
2021/12/21 00:31:32;;;;;;;14.82;6.97;;;24.60;66.50;;;;;;6303642;22;20006;-79
2021/12/21 00:33:59;;;;;;;12.73;4.03;;;24.60;66.70;;;;;;6302199;22;20011;-77
2021/12/21 00:36:28;;;;;;;19.58;5.45;;;24.60;66.70;;;;;;6303250;22;20003;-77
2021/12/21 00:38:56;;;;;;;14.65;4.47;;;24.60;66.50;;;;;;6302936;22;20074;-78
2021/12/21 00:41:24;;;;;;;8.20;3.38;;;24.60;66.20;;;;;;6302920;22;20088;-78
2021/12/21 00:43:51;;;;;;;9.00;3.45;;;24.60;65.80;;;;;;6303740;22;20339;-84
2021/12/21 00:46:18;;;;;;;14.48;3.70;;;24.60;65.80;;;;;;6303278;22;20003;-78
2021/12/21 00:48:52;;;;;;;13.07;3.72;;;24.60;65.80;;;;;;6303747;22;20002;-82
2021/12/21 00:51:26;;;;;;;12.98;4.40;;;24.60;65.70;;;;;;6302856;22;20053;-77
2021/12/21 00:53:53;;;;;;;11.23;3.50;;;24.60;65.70;;;;;;6303986;22;20422;-79
2021/12/21 00:56:20;;;;;;;10.60;3.17;;;24.60;65.70;;;;;;6304042;22;20235;-78
2021/12/21 00:58:46;;;;;;;12.25;4.18;;;24.70;65.80;;;;;;6302598;22;20003;-80
2021/12/21 01:01:13;;;;;;;9.88;3.10;;;24.60;65.90;;;;;;6303639;22;20029;-79
2021/12/21 01:03:47;;;;;;;9.88;4.00;;;24.60;66.00;;;;;;6301666;22;20007;-78
2021/12/21 01:11:37;;;;;;;11.88;3.53;;;24.50;66.30;;;;;;6303553;22;20003;-77
2021/12/21 01:16:45;;;;;;;11.80;3.17;;;24.50;66.30;;;;;;6302205;22;20086;-80
2021/12/21 01:19:19;;;;;;;13.60;4.20;;;24.60;66.30;;;;;;6301439;22;20042;-78
2021/12/21 01:22:04;;;;;;;10.43;2.75;;;24.60;66.40;;;;;;6300515;22;20316;-78
2021/12/21 01:24:44;;;;;;;9.48;3.35;;;24.60;66.40;;;;;;6300463;22;20106;-78
2021/12/21 01:27:32;;;;;;;12.10;4.32;;;24.60;66.50;;;;;;6303704;22;20144;-78
2021/12/21 01:30:11;;;;;;;7.28;2.88;;;24.60;66.90;;;;;;6302030;22;20003;-80
2021/12/21 01:32:58;;;;;;;6.15;2.88;;;24.60;67.70;;;;;;6303100;22;19995;-79
2021/12/21 01:35:33;;;;;;;10.65;3.58;;;24.60;67.00;;;;;;6303225;22;20003;-80
2021/12/21 01:38:22;;;;;;;11.63;3.10;;;24.70;66.90;;;;;;6301611;22;20434;-80
2021/12/21 01:51:19;;;;;;;6.88;2.50;;;24.80;66.60;;;;;;6302211;22;19909;-82
2021/12/21 01:53:47;;;;;;;5.05;1.90;;;24.80;66.70;;;;;;6303216;22;19999;-81
2021/12/21 01:56:14;;;;;;;8.48;1.92;;;24.80;66.60;;;;;;6301388;22;20450;-82
2021/12/21 01:58:41;;;;;;;9.98;3.00;;;24.80;66.70;;;;;;6300720;22;20086;-81
2021/12/21 02:01:10;;;;;;;5.60;2.42;;;24.70;66.60;;;;;;6303215;22;19995;-82
2021/12/21 02:03:37;;;;;;;6.18;2.28;;;24.70;66.40;;;;;;6302358;22;20007;-82
2021/12/21 02:06:05;;;;;;;7.22;2.42;;;24.70;66.60;;;;;;6300777;22;20129;-78
2021/12/21 02:08:32;;;;;;;8.32;3.13;;;24.70;66.30;;;;;;6301695;22;20002;-78
2021/12/21 02:11:03;;;;;;;15.65;4.45;;;24.70;64.50;;;;;;6300984;22;20010;-78
2021/12/21 02:13:33;;;;;;;8.45;3.35;;;24.60;63.40;;;;;;6302189;22;20498;-78
2021/12/21 02:16:01;;;;;;;8.65;2.72;;;24.50;63.10;;;;;;6302956;22;20007;-80
2021/12/21 02:22:09;;;;;;;10.32;3.78;;;24.40;63.50;;;;;;6276986;22;20003;-78
2021/12/21 02:24:14;;;;;;;7.75;2.58;;;24.30;63.70;;;;;;6293882;22;20031;-77
2021/12/21 02:26:50;;;;;;;14.95;3.50;;;24.40;63.70;;;;;;6300250;22;20003;-77
2021/12/21 02:29:24;;;;;;;10.80;3.60;;;24.40;63.80;;;;;;6301731;22;20004;-79
2021/12/21 02:31:52;;;;;;;28.70;4.38;;;24.40;63.90;;;;;;6302949;22;20006;-78
2021/12/21 02:34:21;;;;;;;12.45;4.85;;;24.30;64.20;;;;;;6301570;22;20006;-77
2021/12/21 02:36:50;;;;;;;12.88;4.38;;;24.30;64.30;;;;;;6303127;22;20316;-77
2021/12/21 02:39:17;;;;;;;23.95;5.65;;;24.20;64.10;;;;;;6299834;22;20015;-78
2021/12/21 02:41:45;;;;;;;28.05;7.78;;;24.20;64.50;;;;;;6300447;22;20057;-81
2021/12/21 02:44:12;;;;;;;32.42;17.83;;;24.20;64.90;;;;;;6302595;22;20019;-78
2021/12/21 02:46:40;;;;;;;17.25;7.10;;;24.20;64.70;;;;;;6301453;22;20435;-78
2021/12/21 02:49:08;;;;;;;24.80;5.57;;;24.10;65.10;;;;;;6302661;22;20003;-78
2021/12/21 02:51:39;;;;;;;35.20;5.72;;;24.10;65.10;;;;;;6301074;22;19999;-78
2021/12/21 02:54:05;;;;;;;19.38;4.95;;;24.00;65.30;;;;;;6302485;22;20003;-78
2021/12/21 02:56:32;;;;;;;18.27;3.97;;;24.00;65.20;;;;;;6300737;22;20000;-79
2021/12/21 02:58:59;;;;;;;19.98;3.88;;;24.00;65.40;;;;;;6302403;22;20009;-77
2021/12/21 03:01:25;;;;;;;10.70;3.33;;;23.90;65.20;;;;;;6302128;22;20053;-77
2021/12/21 03:03:53;;;;;;;25.55;5.63;;;23.90;65.30;;;;;;6299686;22;20003;-77
2021/12/21 03:12:10;;;;;;;16.98;4.47;;;23.80;66.50;;;;;;6305073;22;20419;-77
2021/12/21 03:14:37;;;;;;;27.02;4.97;;;23.70;66.30;;;;;;6304503;22;20007;-78
2021/12/21 03:17:05;;;;;;;18.92;4.05;;;23.70;66.60;;;;;;6303325;22;20003;-78
2021/12/21 03:19:32;;;;;;;20.92;3.72;;;23.70;66.60;;;;;;6304341;22;19999;-78
2021/12/21 03:21:58;;;;;;;44.08;5.13;;;23.70;66.70;;;;;;6303192;22;20006;-79
2021/12/21 03:24:25;;;;;;;40.92;6.00;;;23.70;67.70;;;;;;6304334;22;20003;-77
2021/12/21 03:26:51;;;;;;;16.83;4.45;;;23.70;67.40;;;;;;6303397;22;20334;-78
2021/12/21 03:29:18;;;;;;;20.25;4.10;;;23.70;67.30;;;;;;6304185;22;20031;-77
2021/12/21 03:31:44;;;;;;;29.73;4.95;;;23.70;67.30;;;;;;6304294;22;20082;-78
2021/12/21 03:34:11;;;;;;;48.17;7.53;;;23.60;67.70;;;;;;6303384;22;20029;-81
2021/12/21 03:36:38;;;;;;;117.88;95.43;;;23.60;67.70;;;;;;6304531;22;20003;-80
2021/12/21 03:39:08;;;;;;;103.85;73.47;;;23.60;67.70;;;;;;6302810;22;20000;-81
2021/12/21 03:41:40;;;;;;;29.45;16.75;;;23.60;67.70;;;;;;6304611;22;19995;-80
2021/12/21 03:44:09;;;;;;;16.42;4.72;;;23.60;67.90;;;;;;6302759;22;20038;-77
2021/12/21 03:46:37;;;;;;;31.60;5.78;;;23.60;67.60;;;;;;6303930;22;20318;-73
2021/12/21 03:49:29;;;;;;;14.93;5.68;;;23.60;67.90;;;;;;6303839;22;20121;-79
2021/12/21 03:51:50;;;;;;;12.57;4.22;;;23.50;67.80;;;;;;6303157;22;20007;-78
2021/12/21 03:54:16;;;;;;;14.00;4.95;;;23.50;68.00;;;;;;6304740;22;20019;-85
2021/12/21 03:56:53;;;;;;;43.40;27.73;;;23.50;68.30;;;;;;6303020;22;20022;-86
2021/12/21 03:59:21;;;;;;;59.05;45.10;;;23.50;68.50;;;;;;6304020;22;20426;-84
2021/12/21 04:01:49;;;;;;;16.20;6.47;;;23.60;68.30;;;;;;6301949;22;20675;-79
2021/12/21 04:04:20;;;;;;;20.13;5.32;;;23.50;68.00;;;;;;6302206;22;20387;-84
2021/12/21 04:06:47;;;;;;;18.15;4.03;;;23.50;68.90;;;;;;6304574;22;19999;-80
2021/12/21 04:09:14;;;;;;;18.83;5.95;;;23.50;68.70;;;;;;6303497;22;20436;-79
2021/12/21 04:11:41;;;;;;;22.85;4.55;;;23.50;68.40;;;;;;6304205;22;19995;-76
2021/12/21 04:14:07;;;;;;;16.25;4.90;;;23.50;68.70;;;;;;6302656;22;20006;-78
2021/12/21 04:16:34;;;;;;;55.95;41.50;;;23.50;68.70;;;;;;6303507;22;20011;-77
2021/12/21 04:19:01;;;;;;;19.70;10.88;;;23.50;68.80;;;;;;6301146;22;20007;-79
2021/12/21 04:21:27;;;;;;;21.85;9.05;;;23.60;68.30;;;;;;6303181;22;19988;-79
2021/12/21 04:23:54;;;;;;;19.60;4.85;;;23.60;68.60;;;;;;6303182;22;20061;-80
2021/12/21 04:26:21;;;;;;;10.20;4.10;;;23.60;68.40;;;;;;6302498;22;19999;-79
2021/12/21 04:28:48;;;;;;;21.65;4.85;;;23.60;68.30;;;;;;6303677;22;20323;-77
2021/12/21 04:31:14;;;;;;;15.80;4.00;;;23.60;68.60;;;;;;6302316;22;20330;-76
2021/12/21 04:33:42;;;;;;;13.32;4.65;;;23.60;68.50;;;;;;6303686;22;20007;-77
2021/12/21 04:36:11;;;;;;;14.05;4.13;;;23.60;68.50;;;;;;6302836;22;20385;-76
2021/12/21 04:38:41;;;;;;;13.80;3.97;;;23.70;68.50;;;;;;6303418;22;20038;-78
2021/12/21 04:41:22;;;;;;;10.57;3.70;;;23.80;68.60;;;;;;6301662;22;20061;-78
2021/12/21 04:43:50;;;;;;;20.33;3.88;;;23.80;68.40;;;;;;6300035;22;20455;-78
2021/12/21 04:46:17;;;;;;;17.50;4.13;;;23.80;68.60;;;;;;6301823;22;20007;-81
2021/12/21 04:48:43;;;;;;;10.65;3.25;;;23.80;68.50;;;;;;6299623;22;20000;-81
2021/12/21 04:51:10;;;;;;;14.35;3.60;;;23.90;68.60;;;;;;6301735;22;19999;-76
2021/12/21 04:53:37;;;;;;;10.38;3.38;;;23.90;68.50;;;;;;6300863;22;20004;-78
2021/12/21 04:56:04;;;;;;;12.00;3.47;;;24.00;68.60;;;;;;6300717;22;19999;-75
2021/12/21 04:58:31;;;;;;;7.95;3.65;;;24.00;68.50;;;;;;6301328;22;20007;-81
2021/12/21 05:00:57;;;;;;;14.50;3.03;;;24.10;68.80;;;;;;6299132;22;20041;-76
2021/12/21 05:03:27;;;;;;;10.45;2.75;;;24.10;68.30;;;;;;6293214;22;20027;-76
2021/12/21 05:05:56;;;;;;;22.80;5.75;;;24.10;68.30;;;;;;6295610;22;20038;-76
2021/12/21 05:08:26;;;;;;;25.75;17.30;;;24.20;68.30;;;;;;6297111;22;20445;-77
2021/12/21 05:11:02;;;;;;;14.90;9.07;;;24.20;68.00;;;;;;6297911;22;20008;-76
2021/12/21 05:13:32;;;;;;;9.30;5.25;;;24.30;67.80;;;;;;6297804;22;20052;-77
2021/12/21 05:15:59;;;;;;;9.25;3.83;;;24.30;67.80;;;;;;6299203;22;20442;-80
2021/12/21 05:18:26;;;;;;;11.32;3.60;;;24.40;67.60;;;;;;6290611;22;20454;-78
2021/12/21 05:20:54;;;;;;;9.93;4.13;;;24.40;67.40;;;;;;6295228;22;20014;-78
2021/12/21 05:23:21;;;;;;;13.02;4.78;;;24.50;67.40;;;;;;6293918;22;20063;-77
2021/12/21 05:25:47;;;;;;;10.05;3.63;;;24.50;67.30;;;;;;6299048;22;20414;-77
2021/12/21 05:28:16;;;;;;;10.52;4.10;;;24.60;66.90;;;;;;6298075;22;20003;-78
2021/12/21 05:30:43;;;;;;;8.75;3.30;;;24.60;66.60;;;;;;6289936;22;20003;-76
2021/12/21 05:33:10;;;;;;;9.35;4.43;;;24.60;66.60;;;;;;6296472;22;20029;-76
2021/12/21 05:35:37;;;;;;;14.80;5.40;;;24.60;66.50;;;;;;6297660;22;20004;-76
2021/12/21 05:38:08;;;;;;;123.50;91.65;;;24.60;66.50;;;;;;6299653;22;20382;-75
2021/12/21 05:40:41;;;;;;;52.60;36.17;;;24.70;66.50;;;;;;6297655;22;20000;-77
2021/12/21 05:43:10;;;;;;;22.38;12.75;;;24.70;66.60;;;;;;6299657;22;20003;-75
2021/12/21 05:45:37;;;;;;;17.77;7.78;;;24.80;66.70;;;;;;6298289;22;20850;-75
2021/12/21 05:48:05;;;;;;;15.60;4.72;;;24.90;66.40;;;;;;6298464;22;20003;-74
2021/12/21 05:50:32;;;;;;;19.02;5.50;;;24.90;65.90;;;;;;6300124;22;19996;-74
2021/12/21 05:52:58;;;;;;;15.95;5.78;;;25.00;65.80;;;;;;6298954;22;20568;-76
2021/12/21 05:55:25;;;;;;;19.63;4.78;;;25.10;65.20;;;;;;6300569;22;20007;-75
2021/12/21 05:57:52;;;;;;;14.88;5.88;;;25.10;65.60;;;;;;6299860;22;20003;-76
2021/12/21 06:00:23;;;;;;;13.27;4.40;;;25.10;65.00;;;;;;6302409;22;20693;-77
2021/12/21 06:02:49;;;;;;;16.25;4.63;;;25.20;64.80;;;;;;6301197;22;19999;-75
2021/12/21 06:05:16;;;;;;;8.95;3.45;;;25.20;64.80;;;;;;6301370;22;20015;-77
2021/12/21 06:07:45;;;;;;;22.52;4.90;;;25.30;64.60;;;;;;6300769;22;20082;-79
2021/12/21 06:10:16;;;;;;;11.25;3.10;;;25.30;64.50;;;;;;6300796;22;19999;-79
2021/12/21 06:23:30;;;;;;;18.05;4.30;;;25.60;63.20;;;;;;6300782;22;20054;-81
2021/12/21 06:25:55;;;;;;;10.52;3.97;;;25.70;62.90;;;;;;6301384;22;20007;-81
2021/12/21 06:28:22;;;;;;;13.85;5.10;;;25.60;62.60;;;;;;6298592;22;20011;-76
2021/12/21 06:30:49;;;;;;;19.58;4.43;;;25.60;62.90;;;;;;6301623;22;20023;-80
2021/12/21 06:33:16;;;;;;;13.50;4.60;;;25.60;63.10;;;;;;6300966;22;20034;-80
2021/12/21 06:35:43;;;;;;;14.90;4.60;;;25.50;63.30;;;;;;6300971;22;20037;-82
2021/12/21 06:38:10;;;;;;;12.40;4.25;;;25.50;63.40;;;;;;6301251;22;19999;-75
2021/12/21 06:40:37;;;;;;;18.75;5.95;;;25.50;63.30;;;;;;6300745;22;20030;-77
2021/12/21 06:43:04;;;;;;;9.00;4.40;;;25.50;63.40;;;;;;6303815;22;20797;-80
2021/12/21 06:45:50;;;;;;;17.13;4.80;;;25.50;63.40;;;;;;6302218;22;20015;-78
2021/12/21 06:53:46;;;;;;;13.85;4.75;;;25.60;62.90;;;;;;6303156;22;20061;-81
2021/12/21 06:56:13;;;;;;;12.77;3.55;;;25.70;62.50;;;;;;6303593;22;20010;-78
2021/12/21 06:58:40;;;;;;;9.63;3.05;;;25.80;62.40;;;;;;6300947;22;20030;-84
2021/12/21 07:01:07;;;;;;;9.32;3.08;;;25.80;62.20;;;;;;6297766;22;20007;-77
2021/12/21 07:03:34;;;;;;;12.23;3.85;;;25.80;62.10;;;;;;6302976;22;19999;-79
2021/12/21 07:06:02;;;;;;;10.73;3.40;;;25.80;61.90;;;;;;6302452;22;20011;-77
2021/12/21 07:08:31;;;;;;;7.95;3.03;;;25.80;61.60;;;;;;6301905;22;20038;-77
2021/12/21 07:11:15;;;;;;;24.35;16.77;;;25.80;61.10;;;;;;6298384;22;20082;-79
2021/12/21 07:19:14;;;;;;;14.35;4.15;;;26.00;62.20;;;;;;6302426;22;20013;-83
2021/12/21 07:21:40;;;;;;;35.55;4.32;;;26.10;61.60;;;;;;6303299;22;20168;-78
2021/12/21 07:24:07;;;;;;;17.45;4.63;;;26.20;62.20;;;;;;6303023;22;20062;-76
2021/12/21 07:26:34;;;;;;;22.27;4.55;;;26.30;63.50;;;;;;6303448;22;20007;-75
2021/12/21 07:29:00;;;;;;;13.65;6.30;;;26.30;61.90;;;;;;6301969;22;20007;-74
2021/12/21 07:31:28;;;;;;;18.90;7.90;;;26.40;60.60;;;;;;6302831;22;20045;-75
2021/12/21 07:33:55;;;;;;;15.38;4.65;;;26.50;61.20;;;;;;6303282;22;19999;-78
2021/12/21 07:36:21;;;;;;;12.05;3.90;;;26.50;60.10;;;;;;6302309;22;19995;-75
2021/12/21 07:38:51;;;;;;;21.50;4.78;;;26.60;60.40;;;;;;6303434;22;20497;-79
2021/12/21 07:41:17;;;;;;;13.63;4.10;;;26.60;60.80;;;;;;6302257;22;20082;-74
2021/12/21 07:43:44;;;;;;;16.92;6.45;;;26.60;60.90;;;;;;6303398;22;20070;-76
2021/12/21 07:46:10;;;;;;;14.88;4.40;;;26.70;60.80;;;;;;6301523;22;20015;-74
2021/12/21 07:48:37;;;;;;;14.93;4.10;;;26.80;60.90;;;;;;6303054;22;20007;-78
2021/12/21 07:51:05;;;;;;;12.35;3.20;;;26.80;60.50;;;;;;6302978;22;20413;-74
2021/12/21 07:53:32;;;;;;;7.95;3.22;;;26.80;60.30;;;;;;6302059;22;20002;-75
2021/12/21 07:56:02;;;;;;;16.42;4.38;;;26.90;59.90;;;;;;6303099;22;19999;-77
2021/12/21 07:58:33;;;;;;;10.95;3.00;;;27.00;59.50;;;;;;6301934;22;20049;-77
2021/12/21 08:01:01;;;;;;;10.77;3.22;;;27.00;59.30;;;;;;6301445;22;20391;-71
2021/12/21 08:03:31;;;;;;;15.95;3.63;;;27.20;58.70;;;;;;6301314;22;20434;-75
2021/12/21 08:05:59;;;;;;;14.25;3.80;;;27.30;58.80;;;;;;6309267;22;20007;-71
2021/12/21 08:08:28;;;;;;;11.85;4.90;;;27.40;58.90;;;;;;6307528;22;20007;-76
2021/12/21 08:13:39;;;;;;;12.93;6.47;;;27.50;57.80;;;;;;6308075;22;20669;-75
2021/12/21 08:16:06;;;;;;;12.80;3.85;;;27.60;57.60;;;;;;6306548;22;20011;-72
2021/12/21 08:18:34;;;;;;;15.25;3.60;;;27.60;57.30;;;;;;6310199;22;20000;-71
2021/12/21 08:21:01;;;;;;;10.35;3.00;;;27.70;56.70;;;;;;6313204;22;20003;-77
2021/12/21 08:23:27;;;;;;;17.00;4.40;;;27.80;56.40;;;;;;6315169;22;19999;-73
2021/12/21 08:25:56;;;;;;;25.42;5.13;;;27.90;56.40;;;;;;6310431;22;20018;-74
2021/12/21 08:28:24;;;;;;;14.20;3.92;;;28.00;56.50;;;;;;6309197;22;20082;-76
2021/12/21 08:30:52;;;;;;;21.40;5.30;;;28.00;56.50;;;;;;6310525;22;20003;-73
2021/12/21 08:33:20;;;;;;;18.13;4.35;;;28.10;58.00;;;;;;6310424;22;20484;-73
2021/12/21 08:35:46;;;;;;;14.40;3.70;;;28.10;58.80;;;;;;6312995;22;20010;-75
2021/12/21 08:38:16;;;;;;;17.20;3.38;;;28.10;58.30;;;;;;6309206;22;20057;-75
2021/12/21 08:40:48;;;;;;;11.02;3.70;;;28.10;58.00;;;;;;6311116;22;19999;-76
2021/12/21 08:43:26;;;;;;;7.82;3.50;;;28.20;58.00;;;;;;6307292;22;20374;-75
2021/12/21 08:45:55;;;;;;;7.65;2.97;;;28.20;57.70;;;;;;6308294;22;20431;-75
2021/12/21 08:48:22;;;;;;;8.95;3.08;;;28.20;57.50;;;;;;6309475;22;19999;-73
2021/12/21 08:50:54;;;;;;;8.80;3.75;;;28.30;57.40;;;;;;6308175;22;19999;-76
2021/12/21 08:53:22;;;;;;;5.57;2.97;;;28.30;57.10;;;;;;6303656;22;20084;-76
2021/12/21 08:55:51;;;;;;;9.20;4.05;;;28.40;56.80;;;;;;6302723;22;20041;-72
2021/12/21 08:58:20;;;;;;;7.13;2.60;;;28.50;57.10;;;;;;6301776;22;20004;-77
2021/12/21 09:00:49;;;;;;;102.63;10.88;;;28.50;57.30;;;;;;6299444;22;20371;-71
2021/12/21 09:03:16;;;;;;;35.67;5.55;;;28.60;56.90;;;;;;6299886;22;20027;-76
2021/12/21 09:05:43;;;;;;;16.05;3.97;;;28.70;56.70;;;;;;6299636;22;20022;-73
2021/12/21 09:08:12;;;;;;;11.40;3.05;;;28.70;57.00;;;;;;6300954;22;20006;-73
2021/12/21 09:10:40;;;;;;;8.10;3.40;;;28.90;55.50;;;;;;6301873;22;20019;-75
2021/12/21 09:13:09;;;;;;;14.20;8.73;;;29.00;55.10;;;;;;6300485;22;19999;-76
2021/12/21 09:15:36;;;;;;;9.35;6.15;;;29.00;54.70;;;;;;6300252;22;20522;-72
2021/12/21 09:18:03;;;;;;;15.38;4.78;;;29.00;54.20;;;;;;6301122;22;19999;-75
2021/12/21 09:20:31;;;;;;;9.23;3.83;;;29.10;54.00;;;;;;6298629;22;20026;-74
2021/12/21 09:22:58;;;;;;;9.45;3.50;;;29.10;53.80;;;;;;6300965;22;19995;-73
2021/12/21 09:25:26;;;;;;;11.38;2.97;;;29.20;53.60;;;;;;6298780;22;20545;-74
2021/12/21 09:27:54;;;;;;;8.95;3.25;;;29.30;53.40;;;;;;6301358;22;20004;-71
2021/12/21 09:30:23;;;;;;;8.52;3.17;;;29.30;53.10;;;;;;6300877;22;20086;-72
2021/12/21 09:32:51;;;;;;;10.23;3.05;;;29.40;52.90;;;;;;6300012;22;20002;-75
2021/12/21 09:35:18;;;;;;;6.80;3.00;;;29.40;52.90;;;;;;6300873;22;19999;-75
2021/12/21 09:37:45;;;;;;;15.45;13.88;;;29.50;52.90;;;;;;6299813;22;20002;-75
2021/12/21 09:40:16;;;;;;;13.00;8.73;;;29.60;52.70;;;;;;6301129;22;19999;-74
2021/12/21 09:42:43;;;;;;;8.60;5.43;;;29.70;52.60;;;;;;6299849;22;20003;-73
2021/12/21 09:45:10;;;;;;;8.23;4.43;;;29.80;52.10;;;;;;6300520;22;20452;-72
2021/12/21 09:47:37;;;;;;;9.20;2.72;;;29.80;51.90;;;;;;6301495;22;20027;-72
2021/12/21 09:50:05;;;;;;;11.48;2.95;;;29.90;51.70;;;;;;6300993;22;20068;-75
2021/12/21 09:52:32;;;;;;;4.82;2.08;;;30.00;51.60;;;;;;6301479;22;20100;-76
2021/12/21 09:55:01;;;;;;;7.03;2.00;;;30.10;51.00;;;;;;6300378;22;20011;-73
2021/12/21 09:57:28;;;;;;;8.57;7.07;;;30.20;50.90;;;;;;6302412;22;20013;-73
2021/12/21 09:59:54;;;;;;;6.18;5.00;;;30.30;50.60;;;;;;6301404;22;20066;-75
2021/12/21 10:02:26;;;;;;;7.43;3.83;;;30.40;50.60;;;;;;6302439;22;20034;-72
2021/12/21 10:04:58;;;;;;;8.07;3.05;;;30.40;50.30;;;;;;6301208;22;20014;-75
2021/12/21 10:07:26;;;;;;;10.23;3.47;;;30.50;50.60;;;;;;6300976;22;20034;-74
2021/12/21 10:10:10;;;;;;;9.95;4.25;;;30.60;51.10;;;;;;6301804;22;20070;-72
2021/12/21 10:12:40;;;;;;;8.27;3.00;;;30.70;51.50;;;;;;6300817;22;19999;-74
2021/12/21 10:15:11;;;;;;;10.88;4.82;;;30.70;51.70;;;;;;6301088;22;20110;-71
2021/12/21 10:17:52;;;;;;;11.60;3.72;;;30.80;51.80;;;;;;6300888;22;20335;-73
2021/12/21 10:20:30;;;;;;;10.63;3.65;;;30.80;51.40;;;;;;6300741;22;20023;-74
2021/12/21 10:22:57;;;;;;;10.10;3.88;;;30.90;51.50;;;;;;6300944;22;20003;-76
2021/12/21 10:25:27;;;;;;;60.95;55.17;;;30.90;51.60;;;;;;6299438;22;20438;-74
2021/12/21 10:27:54;;;;;;;17.08;9.65;;;30.90;52.20;;;;;;6300524;22;19999;-73
2021/12/21 10:30:20;;;;;;;10.13;6.88;;;31.00;51.50;;;;;;6298729;22;20049;-72
2021/12/21 10:32:54;;;;;;;11.82;4.80;;;31.00;51.10;;;;;;6295904;22;20010;-75
2021/12/21 10:35:30;;;;;;;17.25;4.28;;;31.10;51.10;;;;;;6301228;22;20707;-76
2021/12/21 10:38:01;;;;;;;16.98;4.75;;;31.10;50.90;;;;;;6298141;22;19991;-73
2021/12/21 10:40:28;;;;;;;12.40;5.55;;;31.20;50.80;;;;;;6299077;22;20422;-75
2021/12/21 10:42:56;;;;;;;12.30;7.03;;;31.20;50.50;;;;;;6296295;22;20007;-72
2021/12/21 10:45:30;;;;;;;9.35;4.22;;;31.30;50.10;;;;;;6299466;22;20022;-75
2021/12/21 10:48:03;;;;;;;18.27;5.00;;;31.30;50.10;;;;;;6300165;22;20016;-72
2021/12/21 10:50:32;;;;;;;12.13;4.13;;;31.40;50.60;;;;;;6299263;22;20073;-72
2021/12/21 10:53:00;;;;;;;12.40;5.10;;;31.40;51.20;;;;;;6300928;22;20003;-76
2021/12/21 10:55:30;;;;;;;26.60;7.55;;;31.50;51.10;;;;;;6300218;22;20025;-76
2021/12/21 10:58:18;;;;;;;27.90;7.50;;;31.50;51.90;;;;;;6299060;22;20003;-73
2021/12/21 11:00:55;;;;;;;21.45;6.65;;;31.60;51.70;;;;;;6299135;22;20003;-73
2021/12/21 11:03:35;;;;;;;13.80;6.47;;;31.70;51.50;;;;;;6300300;22;20023;-74
2021/12/21 11:06:09;;;;;;;12.82;6.88;;;31.70;51.50;;;;;;6301520;22;20022;-71
2021/12/21 11:08:38;;;;;;;18.25;7.72;;;31.80;51.30;;;;;;6299570;22;20430;-73
2021/12/21 11:11:10;;;;;;;14.40;6.88;;;31.80;51.80;;;;;;6299657;22;20003;-71
2021/12/21 11:13:37;;;;;;;11.77;6.63;;;31.90;52.00;;;;;;6300461;22;20003;-73
2021/12/21 11:16:07;;;;;;;14.63;6.78;;;31.90;52.00;;;;;;6301280;22;20003;-73
2021/12/21 11:18:37;;;;;;;13.75;8.35;;;31.90;51.90;;;;;;6299100;22;19995;-72
2021/12/21 11:21:09;;;;;;;14.50;7.95;;;32.00;52.00;;;;;;6299372;22;19995;-72
2021/12/21 11:23:37;;;;;;;9.50;5.60;;;32.00;51.30;;;;;;6300863;22;20097;-74
2021/12/21 11:26:07;;;;;;;10.00;6.28;;;32.00;51.00;;;;;;6299962;22;20427;-73
2021/12/21 11:28:36;;;;;;;13.63;6.18;;;32.00;50.80;;;;;;6301814;22;20026;-73
2021/12/21 11:31:04;;;;;;;11.18;6.50;;;32.10;50.50;;;;;;6301234;22;20074;-72
2021/12/21 11:33:36;;;;;;;13.77;5.00;;;32.10;49.60;;;;;;6300640;22;20331;-73
2021/12/21 11:38:48;;;;;;;12.00;5.70;;;32.10;49.20;;;;;;6299475;22;20014;-73
2021/12/21 11:41:16;;;;;;;14.75;5.07;;;32.20;48.40;;;;;;6301393;22;20328;-71
2021/12/21 11:44:17;;;;;;;25.48;19.77;;;32.20;48.70;;;;;;6301454;22;19995;-74
2021/12/21 11:46:55;;;;;;;9.27;5.65;;;32.20;48.20;;;;;;6300469;22;20019;-72
2021/12/21 11:49:29;;;;;;;12.90;4.68;;;32.30;48.40;;;;;;6300919;22;20091;-75
2021/12/21 11:52:16;;;;;;;9.25;4.50;;;32.30;48.70;;;;;;6301157;22;20086;-75
2021/12/21 11:55:08;;;;;;;7.43;3.75;;;32.30;48.60;;;;;;6302622;22;20007;-73
2021/12/21 11:57:44;;;;;;;7.45;3.42;;;32.30;48.40;;;;;;6292437;22;20056;-75
2021/12/21 12:00:13;;;;;;;8.88;3.83;;;32.30;48.10;;;;;;6300814;22;19999;-76
2021/12/21 12:02:39;;;;;;;6.70;3.33;;;32.30;48.10;;;;;;6303335;22;20061;-76
2021/12/21 12:05:25;;;;;;;10.20;3.90;;;32.40;48.00;;;;;;6302207;22;20018;-74
2021/12/21 12:08:08;;;;;;;7.95;2.80;;;32.40;47.80;;;;;;6303196;22;20454;-73
2021/12/21 12:10:38;;;;;;;10.25;3.90;;;32.40;47.80;;;;;;6302144;22;20006;-76
2021/12/21 12:13:17;;;;;;;5.97;2.88;;;32.50;47.90;;;;;;6302011;22;20006;-74
2021/12/21 12:15:53;;;;;;;11.98;3.30;;;32.50;47.80;;;;;;6303561;22;20038;-74
2021/12/21 12:18:44;;;;;;;8.68;2.58;;;32.50;47.70;;;;;;6300896;22;20010;-74
2021/12/21 12:21:24;;;;;;;10.90;2.95;;;32.60;47.60;;;;;;6301359;22;20076;-75
2021/12/21 12:23:56;;;;;;;8.00;3.65;;;32.60;47.40;;;;;;6303497;22;19999;-75
2021/12/21 12:26:29;;;;;;;6.82;2.45;;;32.60;46.70;;;;;;6302590;22;20011;-74
2021/12/21 12:29:09;;;;;;;9.30;2.83;;;32.70;46.70;;;;;;6303871;22;20014;-74
2021/12/21 12:31:38;;;;;;;8.27;2.95;;;32.80;46.50;;;;;;6301667;22;20003;-74
2021/12/21 12:34:06;;;;;;;9.20;2.70;;;32.70;46.20;;;;;;6302331;22;20006;-74
2021/12/21 12:36:54;;;;;;;6.90;2.63;;;32.90;46.20;;;;;;6301986;22;20019;-74
2021/12/21 12:39:34;;;;;;;7.45;3.25;;;32.90;46.40;;;;;;6297014;22;20071;-74
2021/12/21 12:42:12;;;;;;;6.07;3.10;;;32.90;45.90;;;;;;6300107;22;20011;-74
2021/12/21 12:44:41;;;;;;;5.47;2.85;;;32.90;46.00;;;;;;6300452;22;20012;-74
2021/12/21 12:47:11;;;;;;;7.57;2.80;;;32.90;46.90;;;;;;6300289;22;20086;-74
2021/12/21 12:49:52;;;;;;;5.93;2.60;;;32.90;46.20;;;;;;6300896;22;20010;-73
2021/12/21 12:52:28;;;;;;;9.70;3.00;;;32.90;47.00;;;;;;6300866;22;20000;-74
2021/12/21 12:55:04;;;;;;;6.05;3.20;;;33.00;46.60;;;;;;6302144;22;20083;-74
2021/12/21 12:57:37;;;;;;;7.57;3.03;;;32.90;46.70;;;;;;6300340;22;20110;-74
2021/12/21 13:00:15;;;;;;;9.43;3.72;;;32.90;47.30;;;;;;6300327;22;20030;-74
2021/12/21 13:02:54;;;;;;;7.97;2.95;;;32.90;47.40;;;;;;6301526;22;20417;-74
2021/12/21 13:05:25;;;;;;;15.77;4.00;;;32.90;47.20;;;;;;6300649;22;20454;-74
2021/12/21 13:07:52;;;;;;;8.50;3.20;;;32.90;47.20;;;;;;6302562;22;19996;-73
2021/12/21 13:10:21;;;;;;;5.68;2.70;;;32.80;47.30;;;;;;6299833;22;19999;-73
2021/12/21 13:12:56;;;;;;;9.00;3.17;;;32.80;47.30;;;;;;6299526;22;20003;-73
2021/12/21 13:15:32;;;;;;;8.25;3.40;;;32.90;47.60;;;;;;6301560;22;20026;-73
2021/12/21 13:18:04;;;;;;;10.27;3.88;;;32.90;47.40;;;;;;6299497;22;20003;-72
2021/12/21 13:20:35;;;;;;;36.83;12.82;;;32.90;47.60;;;;;;6300764;22;19996;-73
2021/12/21 13:23:10;;;;;;;31.05;5.78;;;32.90;48.30;;;;;;6300192;22;20019;-73
2021/12/21 13:25:37;;;;;;;17.88;4.25;;;32.80;48.60;;;;;;6301913;22;20026;-74
2021/12/21 13:28:11;;;;;;;8.60;3.97;;;32.80;48.20;;;;;;6300967;22;19999;-77
2021/12/21 13:30:46;;;;;;;19.73;4.25;;;32.80;47.70;;;;;;6293100;22;20017;-72
2021/12/21 13:33:27;;;;;;;9.18;3.30;;;32.70;47.60;;;;;;6299993;22;20423;-73
2021/12/21 13:35:57;;;;;;;11.20;3.65;;;32.70;47.80;;;;;;6300417;22;20075;-76
2021/12/21 13:38:25;;;;;;;11.55;4.00;;;32.70;47.50;;;;;;6301259;22;20423;-73
2021/12/21 13:41:02;;;;;;;9.57;2.90;;;32.60;47.30;;;;;;6301450;22;20074;-76
2021/12/21 13:43:29;;;;;;;11.63;3.55;;;32.60;47.30;;;;;;6301092;22;19991;-74
2021/12/21 13:46:03;;;;;;;12.45;3.20;;;32.60;47.40;;;;;;6302703;22;20574;-76
2021/12/21 13:48:31;;;;;;;7.25;3.42;;;32.70;47.50;;;;;;6300325;22;20420;-77
2021/12/21 13:51:15;;;;;;;24.25;4.07;;;32.70;47.40;;;;;;6303083;22;20000;-73
2021/12/21 13:53:49;;;;;;;7.65;3.53;;;32.70;47.30;;;;;;6302387;22;20057;-77
2021/12/21 13:56:19;;;;;;;8.82;2.65;;;32.70;46.90;;;;;;6302465;22;20022;-74